createdAt,value
2018-11-26T00:00:35.825Z,11.97
2018-11-26T00:03:06.070Z,11.50
2018-11-26T00:05:33.728Z,12.77
2018-11-26T00:08:01.335Z,10.53
2018-11-26T00:10:40.267Z,9.80
2018-11-26T00:13:07.888Z,11.20
2018-11-26T00:15:35.412Z,8.97
2018-11-26T00:18:02.962Z,12.20
2018-11-26T00:20:30.576Z,11.23
2018-11-26T00:22:58.177Z,10.47
2018-11-26T00:25:33.726Z,9.27
2018-11-26T00:28:01.361Z,11.60
2018-11-26T00:30:28.954Z,13.67
2018-11-26T00:32:56.463Z,12.37
2018-11-26T00:35:23.982Z,14.47
2018-11-26T00:37:51.502Z,13.90
2018-11-26T00:40:19.152Z,14.73
2018-11-26T00:42:46.799Z,14.53
2018-11-26T00:45:14.322Z,14.83
2018-11-26T00:47:41.951Z,14.27
2018-11-26T00:50:09.738Z,13.33
2018-11-26T00:52:37.649Z,15.03
2018-11-26T00:55:05.911Z,11.57
2018-11-26T00:57:33.520Z,13.10
2018-11-26T01:00:01.141Z,12.33
2018-11-26T01:02:28.685Z,12.47
2018-11-26T01:04:56.347Z,11.10
2018-11-26T01:07:24.161Z,16.80
2018-11-26T01:12:48.056Z,13.67
2018-11-26T01:15:15.750Z,12.40
2018-11-26T01:17:43.399Z,13.87
2018-11-26T01:20:10.942Z,14.40
2018-11-26T01:22:38.499Z,13.10
2018-11-26T01:25:06.030Z,10.90
2018-11-26T01:27:33.658Z,16.53
2018-11-26T01:30:01.514Z,13.37
2018-11-26T01:32:29.167Z,11.47
2018-11-26T01:34:56.694Z,11.00
2018-11-26T01:37:24.343Z,12.77
2018-11-26T01:39:51.885Z,12.27
2018-11-26T01:42:19.528Z,12.07
2018-11-26T01:44:47.071Z,10.17
2018-11-26T01:47:14.642Z,14.23
2018-11-26T01:49:42.287Z,12.10
2018-11-26T01:52:09.846Z,13.00
2018-11-26T01:54:37.504Z,12.53
2018-11-26T01:57:05.098Z,12.13
2018-11-26T01:59:32.735Z,12.00
2018-11-26T02:02:00.387Z,11.27
2018-11-26T02:04:28.048Z,15.40
2018-11-26T02:06:55.618Z,11.43
2018-11-26T02:09:23.291Z,10.83
2018-11-26T02:11:50.931Z,13.00
2018-11-26T02:14:18.578Z,10.20
2018-11-26T02:16:46.124Z,11.30
2018-11-26T02:19:13.647Z,10.20
2018-11-26T02:21:41.186Z,9.87
2018-11-26T02:24:08.836Z,8.83
2018-11-26T02:26:36.387Z,11.00
2018-11-26T02:29:03.963Z,9.53
2018-11-26T02:31:31.595Z,10.03
2018-11-26T02:33:59.247Z,10.23
2018-11-26T02:36:26.778Z,9.40
2018-11-26T02:38:54.418Z,9.53
2018-11-26T02:41:21.961Z,12.67
2018-11-26T02:43:49.634Z,11.43
2018-11-26T02:46:17.281Z,10.37
2018-11-26T02:48:44.962Z,13.53
2018-11-26T02:51:12.517Z,11.17
2018-11-26T02:53:40.144Z,10.43
2018-11-26T02:56:07.795Z,10.77
2018-11-26T02:58:35.322Z,10.37
2018-11-26T03:01:02.932Z,13.10
2018-11-26T03:03:30.615Z,11.87
2018-11-26T03:05:58.259Z,10.47
2018-11-26T03:08:25.947Z,11.20
2018-11-26T03:10:54.129Z,8.87
2018-11-26T03:13:21.807Z,10.77
2018-11-26T03:15:49.455Z,9.27
2018-11-26T03:18:17.105Z,9.27
2018-11-26T03:20:44.772Z,9.93
2018-11-26T03:23:12.418Z,8.83
2018-11-26T03:25:39.958Z,9.67
2018-11-26T03:28:07.592Z,9.80
2018-11-26T03:30:35.298Z,9.77
2018-11-26T03:33:02.939Z,8.67
2018-11-26T03:35:30.487Z,6.53
2018-11-26T03:37:58.003Z,9.87
2018-11-26T03:40:25.559Z,11.93
2018-11-26T03:42:53.211Z,9.67
2018-11-26T03:45:20.920Z,8.27
2018-11-26T03:47:48.552Z,9.07
2018-11-26T03:50:16.151Z,7.20
2018-11-26T03:52:43.882Z,9.97
2018-11-26T03:55:11.859Z,8.90
2018-11-26T03:57:39.401Z,8.27
2018-11-26T04:00:09.531Z,8.83
2018-11-26T04:02:37.068Z,8.03
2018-11-26T04:05:05.391Z,7.90
2018-11-26T04:07:33.087Z,8.47
2018-11-26T04:10:00.645Z,6.80
2018-11-26T04:12:28.283Z,7.17
2018-11-26T04:14:55.863Z,7.43
2018-11-26T04:17:23.426Z,7.33
2018-11-26T04:19:50.986Z,7.00
2018-11-26T04:22:18.523Z,8.50
2018-11-26T04:24:46.071Z,7.20
2018-11-26T04:27:13.639Z,7.03
2018-11-26T04:29:41.303Z,8.43
2018-11-26T04:32:08.956Z,8.87
2018-11-26T04:34:36.619Z,7.47
2018-11-26T04:37:04.670Z,6.20
2018-11-26T04:39:32.234Z,9.60
2018-11-26T04:41:59.783Z,6.90
2018-11-26T04:44:27.490Z,7.40
2018-11-26T04:46:55.175Z,6.73
2018-11-26T04:49:22.915Z,5.50
2018-11-26T04:51:50.497Z,8.43
2018-11-26T04:54:18.159Z,8.43
2018-11-26T04:56:45.839Z,6.63
2018-11-26T04:59:13.523Z,6.90
2018-11-26T05:01:41.042Z,7.37
2018-11-26T05:04:08.566Z,7.57
2018-11-26T05:06:36.217Z,8.03
2018-11-26T05:09:06.571Z,6.83
2018-11-26T05:11:34.126Z,6.40
2018-11-26T05:14:01.656Z,12.07
2018-11-26T05:16:29.203Z,8.67
2018-11-26T05:18:56.762Z,7.47
2018-11-26T05:21:24.433Z,7.43
2018-11-26T05:23:52.063Z,7.27
2018-11-26T05:26:19.607Z,8.70
2018-11-26T05:28:47.135Z,8.77
2018-11-26T05:31:14.635Z,6.90
2018-11-26T05:33:42.138Z,11.20
2018-11-26T05:36:09.690Z,9.10
2018-11-26T05:38:37.365Z,8.90
2018-11-26T05:41:05.043Z,9.80
2018-11-26T05:43:32.681Z,9.43
2018-11-26T05:46:00.234Z,8.27
2018-11-26T05:48:27.798Z,9.77
2018-11-26T05:50:55.350Z,9.87
2018-11-26T05:53:22.882Z,8.80
2018-11-26T05:55:50.399Z,9.87
2018-11-26T05:58:18.035Z,9.37
2018-11-26T06:00:45.559Z,10.37
2018-11-26T06:03:13.080Z,31.80
2018-11-26T06:05:40.724Z,13.47
2018-11-26T06:08:08.271Z,11.13
2018-11-26T06:10:35.803Z,10.90
2018-11-26T06:13:03.361Z,10.23
2018-11-26T06:15:30.998Z,8.90
2018-11-26T06:17:58.666Z,10.70
2018-11-26T06:20:26.217Z,8.50
2018-11-26T06:22:53.758Z,7.47
2018-11-26T06:25:21.326Z,10.13
2018-11-26T06:27:48.864Z,8.80
2018-11-26T06:30:17.444Z,10.43
2018-11-26T06:32:44.967Z,9.70
2018-11-26T06:35:20.363Z,10.03
2018-11-26T06:37:47.910Z,12.03
2018-11-26T06:40:15.462Z,10.20
2018-11-26T06:42:43.019Z,11.00
2018-11-26T06:45:11.359Z,10.37
2018-11-26T06:47:38.951Z,25.37
2018-11-26T06:50:07.390Z,18.33
2018-11-26T06:52:34.939Z,12.03
2018-11-26T06:55:02.507Z,9.20
2018-11-26T06:57:30.044Z,10.90
2018-11-26T06:59:57.688Z,10.10
2018-11-26T07:02:25.211Z,10.13
2018-11-26T07:04:52.738Z,8.67
2018-11-26T07:07:20.262Z,12.90
2018-11-26T07:09:47.825Z,11.77
2018-11-26T07:12:15.466Z,10.43
2018-11-26T07:14:43.096Z,10.17
2018-11-26T07:17:10.630Z,12.87
2018-11-26T07:19:38.291Z,13.10
2018-11-26T07:22:05.830Z,15.50
2018-11-26T07:24:33.488Z,12.93
2018-11-26T07:27:01.110Z,13.73
2018-11-26T07:29:28.739Z,11.33
2018-11-26T07:31:56.371Z,10.77
2018-11-26T07:34:23.895Z,12.37
2018-11-26T07:36:51.570Z,12.97
2018-11-26T07:39:19.103Z,13.83
2018-11-26T07:41:46.611Z,11.70
2018-11-26T07:44:14.126Z,12.60
2018-11-26T07:46:41.759Z,13.70
2018-11-26T07:49:09.291Z,12.87
2018-11-26T07:51:36.822Z,10.83
2018-11-26T07:54:04.490Z,12.17
2018-11-26T07:56:32.138Z,14.67
2018-11-26T07:58:59.810Z,12.40
2018-11-26T08:01:27.338Z,13.17
2018-11-26T08:03:54.883Z,13.40
2018-11-26T08:06:22.421Z,14.87
2018-11-26T08:08:49.933Z,14.57
2018-11-26T08:11:17.583Z,14.47
2018-11-26T08:13:45.106Z,13.73
2018-11-26T08:16:12.618Z,18.80
2018-11-26T08:18:40.158Z,14.07
2018-11-26T08:21:07.682Z,14.87
2018-11-26T08:23:35.235Z,13.50
2018-11-26T08:26:02.876Z,13.33
2018-11-26T08:28:30.426Z,15.23
2018-11-26T08:30:58.051Z,13.33
2018-11-26T08:33:25.679Z,18.33
2018-11-26T08:35:58.788Z,15.87
2018-11-26T08:38:30.875Z,17.43
2018-11-26T08:41:18.447Z,15.53
2018-11-26T08:43:51.458Z,17.60
2018-11-26T08:46:24.649Z,14.13
2018-11-26T08:48:57.781Z,11.90
2018-11-26T08:51:25.313Z,19.03
2018-11-26T08:53:52.976Z,21.37
2018-11-26T08:56:20.538Z,18.07
2018-11-26T08:58:48.207Z,19.47
2018-11-26T09:01:18.474Z,16.87
2018-11-26T09:03:47.974Z,14.63
2018-11-26T09:06:15.851Z,18.53
2018-11-26T09:08:43.373Z,15.90
2018-11-26T09:11:10.915Z,16.67
2018-11-26T09:13:38.580Z,16.90
2018-11-26T09:16:06.130Z,15.50
2018-11-26T09:18:33.698Z,16.77
2018-11-26T09:21:01.338Z,14.67
2018-11-26T09:23:28.875Z,16.07
2018-11-26T09:25:56.532Z,15.50
2018-11-26T09:28:24.167Z,13.83
2018-11-26T09:30:51.847Z,14.57
2018-11-26T09:33:19.393Z,16.23
2018-11-26T09:35:47.023Z,16.87
2018-11-26T09:38:14.560Z,15.20
2018-11-26T09:40:42.246Z,13.63
2018-11-26T09:43:09.771Z,12.47
2018-11-26T09:45:40.459Z,11.97
2018-11-26T09:48:05.228Z,11.57
2018-11-26T09:50:32.803Z,12.17
2018-11-26T09:53:00.343Z,11.23
2018-11-26T09:55:28.039Z,11.30
2018-11-26T09:57:55.565Z,12.27
2018-11-26T10:00:23.265Z,12.83
2018-11-26T10:02:51.426Z,10.97
2018-11-26T10:05:20.358Z,13.27
2018-11-26T10:07:47.898Z,11.00
2018-11-26T10:10:15.480Z,16.33
2018-11-26T10:12:43.287Z,12.67
2018-11-26T10:15:12.440Z,11.17
2018-11-26T10:17:40.139Z,12.87
2018-11-26T10:20:08.618Z,14.17
2018-11-26T10:22:36.215Z,10.47
2018-11-26T10:25:05.940Z,10.47
2018-11-26T10:27:31.419Z,12.57
2018-11-26T10:29:59.310Z,12.47
2018-11-26T10:32:26.971Z,13.93
2018-11-26T10:34:54.608Z,12.83
2018-11-26T10:37:22.162Z,14.10
2018-11-26T10:39:49.815Z,13.17
2018-11-26T10:42:17.345Z,11.10
2018-11-26T10:44:44.879Z,12.93
2018-11-26T10:47:12.495Z,14.07
2018-11-26T10:49:40.095Z,9.43
2018-11-26T10:52:07.679Z,11.00
2018-11-26T10:54:35.284Z,10.80
2018-11-26T10:57:02.837Z,12.43
2018-11-26T10:59:30.474Z,14.20
2018-11-26T11:02:01.050Z,12.30
2018-11-26T11:04:28.604Z,13.33
2018-11-26T11:06:56.236Z,10.13
2018-11-26T11:09:23.779Z,17.10
2018-11-26T11:11:51.444Z,15.43
2018-11-26T11:14:19.051Z,15.37
2018-11-26T11:16:46.623Z,15.47
2018-11-26T11:19:14.167Z,13.13
2018-11-26T11:21:41.864Z,13.60
2018-11-26T11:24:09.471Z,15.67
2018-11-26T11:26:37.011Z,13.47
2018-11-26T11:29:04.644Z,12.00
2018-11-26T11:31:32.189Z,12.73
2018-11-26T11:33:59.725Z,11.00
2018-11-26T11:36:27.284Z,17.50
2018-11-26T11:38:54.874Z,16.47
2018-11-26T11:41:22.439Z,15.00
2018-11-26T11:43:49.979Z,13.43
2018-11-26T11:46:17.636Z,13.53
2018-11-26T11:48:45.166Z,16.23
2018-11-26T11:51:12.751Z,14.40
2018-11-26T11:53:40.314Z,16.53
2018-11-26T11:56:07.840Z,15.27
2018-11-26T11:58:35.526Z,14.47
2018-11-26T12:01:03.151Z,13.80
2018-11-26T12:03:30.845Z,14.07
2018-11-26T12:05:58.464Z,13.93
2018-11-26T12:08:26.200Z,14.57
2018-11-26T12:10:53.760Z,14.60
2018-11-26T12:13:21.340Z,14.73
2018-11-26T12:15:50.544Z,14.57
2018-11-26T12:18:18.163Z,17.97
2018-11-26T12:20:45.695Z,18.53
2018-11-26T12:23:13.340Z,16.03
2018-11-26T12:25:40.902Z,16.57
2018-11-26T12:28:08.420Z,14.90
2018-11-26T12:30:36.892Z,14.83
2018-11-26T12:33:05.256Z,15.67
2018-11-26T12:35:32.243Z,14.37
2018-11-26T12:37:59.757Z,15.07
2018-11-26T12:40:27.298Z,16.60
2018-11-26T12:42:55.419Z,18.43
2018-11-26T12:45:24.376Z,18.33
2018-11-26T12:47:52.016Z,14.80
2018-11-26T12:50:19.693Z,13.57
2018-11-26T12:52:47.227Z,14.53
2018-11-26T12:55:15.887Z,13.93
2018-11-26T12:57:44.237Z,19.67
2018-11-26T13:00:12.372Z,15.10
2018-11-26T13:02:39.938Z,13.50
2018-11-26T13:05:09.755Z,14.13
2018-11-26T13:07:37.294Z,13.40
2018-11-26T13:10:06.032Z,14.77
2018-11-26T13:12:33.605Z,14.57
2018-11-26T13:15:01.178Z,13.30
2018-11-26T13:17:28.816Z,13.20
2018-11-26T13:19:56.335Z,11.20
2018-11-26T13:22:23.867Z,11.77
2018-11-26T13:24:51.404Z,10.67
2018-11-26T13:27:19.081Z,14.27
2018-11-26T13:29:46.724Z,13.30
2018-11-26T13:32:14.365Z,13.90
2018-11-26T13:34:41.919Z,13.57
2018-11-26T13:37:09.618Z,12.90
2018-11-26T13:39:37.134Z,11.53
2018-11-26T13:42:05.292Z,12.73
2018-11-26T13:44:32.831Z,12.47
2018-11-26T13:47:00.476Z,13.87
2018-11-26T13:49:28.048Z,14.17
2018-11-26T13:51:55.673Z,11.77
2018-11-26T13:54:23.212Z,13.63
2018-11-26T13:56:50.845Z,14.37
2018-11-26T13:59:18.773Z,14.37
2018-11-26T14:01:46.195Z,13.23
2018-11-26T14:04:13.715Z,12.33
2018-11-26T14:06:41.303Z,10.40
2018-11-26T14:09:09.072Z,12.37
2018-11-26T14:11:36.723Z,15.33
2018-11-26T14:14:04.391Z,11.83
2018-11-26T14:16:31.948Z,11.20
2018-11-26T14:18:59.556Z,11.17
2018-11-26T14:21:27.213Z,13.63
2018-11-26T14:23:54.857Z,11.77
2018-11-26T14:26:22.417Z,11.50
2018-11-26T14:28:49.963Z,11.90
2018-11-26T14:31:17.580Z,11.77
2018-11-26T14:33:45.220Z,12.33
2018-11-26T14:36:12.762Z,12.70
2018-11-26T14:38:40.414Z,11.73
2018-11-26T14:41:08.080Z,10.20
2018-11-26T14:43:35.664Z,11.10
2018-11-26T14:46:03.199Z,11.00
2018-11-26T14:48:30.760Z,9.00
2018-11-26T14:50:58.305Z,12.43
2018-11-26T14:53:25.853Z,10.13
2018-11-26T14:55:53.487Z,10.13
2018-11-26T14:58:21.044Z,10.27
2018-11-26T15:00:48.701Z,9.63
2018-11-26T15:03:16.229Z,9.17
2018-11-26T15:05:43.900Z,10.10
2018-11-26T15:08:11.476Z,7.90
2018-11-26T15:10:39.004Z,11.53
2018-11-26T15:13:06.711Z,10.00
2018-11-26T15:15:34.315Z,10.20
2018-11-26T15:18:01.960Z,8.43
2018-11-26T15:20:30.145Z,8.43
2018-11-26T15:22:58.140Z,7.93
2018-11-26T15:25:26.993Z,8.40
2018-11-26T15:27:56.120Z,8.30
2018-11-26T15:30:23.683Z,7.73
2018-11-26T15:32:51.260Z,7.87
2018-11-26T15:35:20.886Z,8.07
2018-11-26T15:37:48.431Z,8.90
2018-11-26T15:40:17.272Z,9.83
2018-11-26T15:42:44.844Z,8.87
2018-11-26T15:45:16.575Z,8.33
2018-11-26T15:47:44.211Z,9.77
2018-11-26T15:50:11.780Z,7.90
2018-11-26T15:52:39.324Z,7.20
2018-11-26T15:55:07.883Z,8.50
2018-11-26T15:57:35.525Z,8.27
2018-11-26T16:00:03.140Z,8.30
2018-11-26T16:02:30.707Z,9.23
2018-11-26T16:04:58.587Z,9.27
2018-11-26T16:07:26.237Z,10.93
2018-11-26T16:09:53.804Z,10.13
2018-11-26T16:12:21.331Z,11.33
2018-11-26T16:14:48.910Z,11.30
2018-11-26T16:17:16.541Z,9.70
2018-11-26T16:19:44.111Z,9.47
2018-11-26T16:22:11.780Z,10.40
2018-11-26T16:24:39.354Z,9.87
2018-11-26T16:27:06.912Z,9.80
2018-11-26T16:29:34.430Z,9.13
2018-11-26T16:32:02.061Z,7.87
2018-11-26T16:34:29.636Z,10.00
2018-11-26T16:36:57.163Z,9.47
2018-11-26T16:39:24.714Z,10.50
2018-11-26T16:41:52.240Z,9.10
2018-11-26T16:44:19.823Z,10.17
2018-11-26T16:46:47.548Z,8.37
2018-11-26T16:49:15.184Z,7.23
2018-11-26T16:51:42.853Z,7.13
2018-11-26T16:54:10.556Z,7.10
2018-11-26T16:56:38.205Z,9.13
2018-11-26T16:59:05.783Z,9.17
2018-11-26T17:01:33.320Z,9.90
2018-11-26T17:04:00.887Z,10.13
2018-11-26T17:06:28.533Z,8.83
2018-11-26T17:08:56.084Z,9.07
2018-11-26T17:11:23.611Z,7.67
2018-11-26T17:13:51.124Z,10.00
2018-11-26T17:16:18.789Z,8.30
2018-11-26T17:18:46.332Z,10.27
2018-11-26T17:21:13.887Z,8.33
2018-11-26T17:23:41.424Z,8.43
2018-11-26T17:26:08.965Z,9.33
2018-11-26T17:28:36.515Z,10.80
2018-11-26T17:31:04.308Z,11.93
2018-11-26T17:33:31.843Z,7.93
2018-11-26T17:35:59.384Z,7.67
2018-11-26T17:38:27.029Z,8.00
2018-11-26T17:40:54.559Z,8.50
2018-11-26T17:43:22.915Z,7.53
2018-11-26T17:45:50.450Z,7.53
2018-11-26T17:48:17.989Z,9.60
2018-11-26T17:50:45.535Z,7.77
2018-11-26T17:53:13.824Z,7.07
2018-11-26T17:55:43.077Z,7.53
2018-11-26T17:58:10.717Z,7.73
2018-11-26T18:00:38.268Z,7.27
2018-11-26T18:03:05.807Z,8.23
2018-11-26T18:05:33.360Z,7.17
2018-11-26T18:08:01.868Z,7.97
2018-11-26T18:10:29.404Z,7.90
2018-11-26T18:12:56.929Z,8.83
2018-11-26T18:15:24.496Z,8.70
2018-11-26T18:17:52.048Z,8.73
2018-11-26T18:20:20.064Z,7.50
2018-11-26T18:22:48.232Z,8.30
2018-11-26T18:25:16.019Z,9.57
2018-11-26T18:27:46.653Z,7.70
2018-11-26T18:30:17.128Z,7.57
2018-11-26T18:32:44.668Z,6.37
2018-11-26T18:35:12.396Z,7.50
2018-11-26T18:37:39.932Z,8.17
2018-11-26T18:40:10.025Z,7.63
2018-11-26T18:42:37.588Z,9.27
2018-11-26T18:45:07.049Z,8.37
2018-11-26T18:47:34.710Z,14.83
2018-11-26T18:50:02.416Z,9.73
2018-11-26T18:52:29.971Z,223.37
2018-11-26T18:54:57.637Z,224.40
2018-11-26T18:57:25.304Z,115.57
2018-11-26T18:59:52.950Z,57.57
2018-11-26T19:02:20.519Z,36.73
2018-11-26T19:04:48.072Z,20.83
2018-11-26T19:07:15.623Z,132.03
2018-11-26T19:09:43.179Z,57.30
2018-11-26T19:12:10.862Z,32.70
2018-11-26T19:14:38.426Z,20.23
2018-11-26T19:17:06.121Z,36.33
2018-11-26T19:19:33.775Z,17.50
2018-11-26T19:22:01.371Z,13.50
2018-11-26T19:24:28.894Z,13.57
2018-11-26T19:26:56.423Z,13.27
2018-11-26T19:29:24.086Z,12.90
2018-11-26T19:31:55.943Z,40.90
2018-11-26T19:34:19.329Z,40.67
2018-11-26T19:36:47.001Z,23.07
2018-11-26T19:39:14.548Z,14.63
2018-11-26T19:41:42.065Z,11.37
2018-11-26T19:44:09.635Z,11.37
2018-11-26T19:46:37.330Z,11.40
2018-11-26T19:49:04.963Z,10.43
2018-11-26T19:51:32.691Z,8.27
2018-11-26T19:54:00.243Z,9.77
2018-11-26T19:56:27.866Z,10.27
2018-11-26T19:58:55.510Z,8.70
2018-11-26T20:01:23.059Z,12.53
2018-11-26T20:03:53.100Z,12.33
2018-11-26T20:06:21.792Z,10.63
2018-11-26T20:08:51.993Z,14.73
2018-11-26T20:11:19.744Z,13.78
2018-11-26T20:13:47.372Z,11.78
2018-11-26T20:16:16.802Z,9.43
2018-11-26T20:18:44.361Z,8.93
2018-11-26T20:21:11.908Z,8.10
2018-11-26T20:23:39.468Z,9.37
2018-11-26T20:26:07.128Z,8.53
2018-11-26T20:28:34.675Z,9.40
2018-11-26T20:31:02.223Z,7.33
2018-11-26T20:33:29.778Z,9.63
2018-11-26T20:35:57.316Z,10.17
2018-11-26T20:38:24.984Z,8.53
2018-11-26T20:40:52.784Z,9.67
2018-11-26T20:43:20.421Z,10.23
2018-11-26T20:45:48.391Z,14.63
2018-11-26T20:48:15.972Z,12.83
2018-11-26T20:50:48.372Z,10.70
2018-11-26T21:21:23.545Z,10.72
